Terminal Aerodrome Forecast
Issued by NWS Buffalo, NY

Home | Current Version | Previous Version | Text Only | Print | Product List | Glossary On
Versions: 1 2 3 4 5 6 7 8 9 10 11 12 13 14 15 16 17 18 19 20 21 22 23 24 25 26
000
FTUS41 KBUF 261500 AAA
TAFBUF
TAF AMD
KBUF 261500Z 2615/2712 02007KT P6SM BKN060
     FM261800 33010KT P6SM BKN070
     FM270000 30007KT P6SM BKN045
     FM270800 28005KT P6SM VCSH OVC025
     FM271100 29006KT P6SM VCSH OVC015=

USA.gov is the U.S. government's official web portal to all federal, state and local government web resources and services.